Time;durP1;ratioP1;P1;durP2;ratioP2;P2;SDS_P1;SDS_P2;PMS_P1;PMS_P2;Temp;Humidity;BMP_temperature;BMP_pressure;BME280_temperature;BME280_humidity;BME280_pressure;Samples;Min_cycle;Max_cycle;Signal;HPM_P1;HPM_P2
2023/10/01 00:00:00;;;;;;;7.43;6.03;;;;;;;;;;2048738;28;20126;-90
2023/10/01 00:01:02;;;;;;;10.38;6.32;;;;;;;;;;2041027;29;20046;-89
2023/10/01 00:02:03;;;;;;;10.75;6.18;;;;;;;;;;2040966;29;20079;-90
2023/10/01 00:03:07;;;;;;;12.45;7.35;;;;;;;;;;2040885;29;20050;-90
2023/10/01 00:04:07;;;;;;;10.85;6.60;;;;;;;;;;2041227;29;20102;-89
2023/10/01 00:05:09;;;;;;;11.05;6.15;;;;;;;;;;2049058;28;20593;-90
2023/10/01 00:06:10;;;;;;;10.73;6.70;;;;;;;;;;2049392;28;20095;-89
2023/10/01 00:07:10;;;;;;;9.63;6.75;;;;;;;;;;2048804;28;20091;-89
2023/10/01 00:08:14;;;;;;;9.52;6.13;;;;;;;;;;2049015;28;20033;-90
2023/10/01 00:09:19;;;;;;;11.07;6.72;;;;;;;;;;2049300;28;20538;-89
2023/10/01 00:10:22;;;;;;;12.55;6.63;;;;;;;;;;2049507;28;20035;-89
2023/10/01 00:11:22;;;;;;;10.43;6.93;;;;;;;;;;2048896;29;20051;-90
2023/10/01 00:12:25;;;;;;;9.88;6.63;;;;;;;;;;2041415;29;20103;-88
2023/10/01 00:13:26;;;;;;;11.93;7.20;;;;;;;;;;2049037;28;20023;-89
2023/10/01 00:14:26;;;;;;;11.00;6.75;;;;;;;;;;2049524;28;20027;-89
2023/10/01 00:15:28;;;;;;;10.88;7.03;;;;;;;;;;2048857;28;20023;-90
2023/10/01 00:16:29;;;;;;;12.20;6.60;;;;;;;;;;2041084;29;20042;-91
2023/10/01 00:17:31;;;;;;;11.35;7.18;;;;;;;;;;2040985;29;20051;-91
2023/10/01 00:18:32;;;;;;;10.43;7.05;;;;;;;;;;2048884;28;20461;-91
2023/10/01 00:19:33;;;;;;;15.90;7.35;;;;;;;;;;2048719;28;20130;-89
2023/10/01 00:20:33;;;;;;;9.75;7.18;;;;;;;;;;2049008;28;20067;-88
2023/10/01 00:21:33;;;;;;;10.85;7.78;;;;;;;;;;2049719;28;20071;-90
2023/10/01 00:22:35;;;;;;;12.02;7.18;;;;;;;;;;2048827;28;20043;-89
2023/10/01 00:23:36;;;;;;;9.07;6.95;;;;;;;;;;2048846;28;20039;-88
2023/10/01 00:24:36;;;;;;;10.48;7.50;;;;;;;;;;2049172;28;20051;-91
2023/10/01 00:25:38;;;;;;;11.05;7.15;;;;;;;;;;2040825;29;20044;-93
2023/10/01 00:26:39;;;;;;;13.35;7.65;;;;;;;;;;2040928;29;20536;-91
2023/10/01 00:27:39;;;;;;;12.55;7.72;;;;;;;;;;2040909;29;20050;-92
2023/10/01 00:28:39;;;;;;;8.98;6.97;;;;;;;;;;2036567;29;20052;-91
2023/10/01 00:29:40;;;;;;;12.30;6.90;;;;;;;;;;2048641;28;20122;-90
2023/10/01 00:30:41;;;;;;;12.93;7.22;;;;;;;;;;2041101;29;20067;-91
2023/10/01 00:31:41;;;;;;;10.93;7.95;;;;;;;;;;2040805;29;20721;-91
2023/10/01 00:32:42;;;;;;;12.90;7.68;;;;;;;;;;2041013;29;20108;-91
2023/10/01 00:33:43;;;;;;;11.88;7.13;;;;;;;;;;2040763;29;20043;-91
2023/10/01 00:34:44;;;;;;;8.80;6.88;;;;;;;;;;2048839;29;20054;-91
2023/10/01 00:35:45;;;;;;;13.13;7.40;;;;;;;;;;2048577;28;20530;-90
2023/10/01 00:36:48;;;;;;;11.98;7.38;;;;;;;;;;2048865;28;20037;-90
2023/10/01 00:37:50;;;;;;;8.57;7.00;;;;;;;;;;2048623;28;20039;-91
2023/10/01 00:38:51;;;;;;;10.05;7.75;;;;;;;;;;2040877;29;20043;-92
2023/10/01 00:39:56;;;;;;;9.77;7.25;;;;;;;;;;2048773;28;20117;-91
2023/10/01 00:40:57;;;;;;;9.88;7.63;;;;;;;;;;2049771;28;20043;-91
2023/10/01 00:41:59;;;;;;;9.93;6.68;;;;;;;;;;2041068;29;20122;-90
2023/10/01 00:43:01;;;;;;;9.63;6.78;;;;;;;;;;2041198;29;20046;-90
2023/10/01 00:44:03;;;;;;;11.15;7.13;;;;;;;;;;2048986;28;20050;-90
2023/10/01 00:45:08;;;;;;;13.45;7.25;;;;;;;;;;2040794;29;20043;-90
2023/10/01 00:46:08;;;;;;;12.15;7.50;;;;;;;;;;2041264;29;20051;-93
2023/10/01 00:47:10;;;;;;;9.00;6.85;;;;;;;;;;2048858;28;20411;-90
2023/10/01 00:48:14;;;;;;;11.13;6.70;;;;;;;;;;2049617;28;20046;-91
2023/10/01 00:49:14;;;;;;;8.93;7.00;;;;;;;;;;2049737;28;20031;-91
2023/10/01 00:50:21;;;;;;;7.68;6.55;;;;;;;;;;2048428;28;20027;-91
2023/10/01 00:51:22;;;;;;;12.75;7.22;;;;;;;;;;2049478;28;20031;-91
2023/10/01 00:52:23;;;;;;;10.50;7.60;;;;;;;;;;2056909;28;20643;-90
2023/10/01 00:53:24;;;;;;;10.13;7.40;;;;;;;;;;2048485;29;20463;-91
2023/10/01 00:54:25;;;;;;;14.85;7.03;;;;;;;;;;2048439;28;20030;-91
2023/10/01 00:55:26;;;;;;;13.00;7.30;;;;;;;;;;2048640;28;20039;-89
2023/10/01 00:56:27;;;;;;;8.98;7.53;;;;;;;;;;2048348;28;20483;-90
2023/10/01 00:57:27;;;;;;;8.55;7.20;;;;;;;;;;2048522;28;20353;-89
2023/10/01 00:58:28;;;;;;;12.27;7.10;;;;;;;;;;2048537;28;20027;-89
2023/10/01 00:59:32;;;;;;;15.15;6.68;;;;;;;;;;2048434;28;20503;-91
2023/10/01 01:00:34;;;;;;;10.98;7.05;;;;;;;;;;2041010;29;20040;-89
2023/10/01 01:01:34;;;;;;;11.13;6.88;;;;;;;;;;2048713;28;20043;-91
2023/10/01 01:02:39;;;;;;;11.38;6.95;;;;;;;;;;2048847;28;20430;-90
2023/10/01 01:03:40;;;;;;;14.65;6.93;;;;;;;;;;2040856;29;20493;-90
2023/10/01 01:04:44;;;;;;;10.52;6.80;;;;;;;;;;2048445;28;20053;-90
2023/10/01 01:06:12;;;;;;;9.05;6.47;;;;;;;;;;2057359;28;20054;-90
2023/10/01 01:07:19;;;;;;;10.77;6.63;;;;;;;;;;2048550;28;20042;-90
2023/10/01 01:09:50;;;;;;;9.55;6.50;;;;;;;;;;2044321;28;20596;-91
2023/10/01 01:10:51;;;;;;;7.78;5.70;;;;;;;;;;2048557;28;20047;-91
2023/10/01 01:11:52;;;;;;;11.90;7.18;;;;;;;;;;2048516;28;20043;-91
2023/10/01 01:12:54;;;;;;;10.50;6.88;;;;;;;;;;2057114;28;20097;-92
2023/10/01 01:13:57;;;;;;;10.77;6.72;;;;;;;;;;2048238;28;20036;-90
2023/10/01 01:14:58;;;;;;;8.20;7.03;;;;;;;;;;2048823;28;20547;-91
2023/10/01 01:16:00;;;;;;;12.38;6.57;;;;;;;;;;2048380;28;20046;-90
2023/10/01 01:17:00;;;;;;;10.90;7.30;;;;;;;;;;2040450;29;20126;-90
2023/10/01 01:18:07;;;;;;;8.18;6.40;;;;;;;;;;2040222;29;20040;-91
2023/10/01 01:19:09;;;;;;;13.13;6.90;;;;;;;;;;2049023;28;20047;-90
2023/10/01 01:20:13;;;;;;;12.43;6.38;;;;;;;;;;2048489;28;20051;-91
2023/10/01 01:21:13;;;;;;;9.43;7.00;;;;;;;;;;2040822;29;20039;-89
2023/10/01 01:22:28;;;;;;;12.00;7.03;;;;;;;;;;2048210;28;20031;-91
2023/10/01 01:23:30;;;;;;;9.98;5.85;;;;;;;;;;2042136;29;20411;-91
2023/10/01 01:24:31;;;;;;;11.35;7.35;;;;;;;;;;2048725;28;20071;-90
2023/10/01 01:25:32;;;;;;;9.57;7.32;;;;;;;;;;2049015;28;20419;-89
2023/10/01 01:26:32;;;;;;;10.07;6.60;;;;;;;;;;2040353;29;20051;-89
2023/10/01 01:27:34;;;;;;;10.05;7.70;;;;;;;;;;2040304;29;20106;-90
2023/10/01 01:28:35;;;;;;;10.20;6.95;;;;;;;;;;2048278;28;20632;-90
2023/10/01 01:29:44;;;;;;;10.68;5.85;;;;;;;;;;2057538;28;20039;-90
2023/10/01 01:30:47;;;;;;;9.63;6.15;;;;;;;;;;2048757;28;20089;-90
2023/10/01 01:32:02;;;;;;;12.30;6.80;;;;;;;;;;2048419;28;20293;-90
2023/10/01 01:33:03;;;;;;;10.15;6.20;;;;;;;;;;2042170;29;20084;-91
2023/10/01 01:34:05;;;;;;;8.05;6.60;;;;;;;;;;2048517;28;20039;-90
2023/10/01 01:35:06;;;;;;;9.52;6.80;;;;;;;;;;2047919;28;20070;-90
2023/10/01 01:36:12;;;;;;;11.73;6.32;;;;;;;;;;2048441;28;20411;-91
2023/10/01 01:38:32;;;;;;;9.15;5.95;;;;;;;;;;2050946;28;20043;-92
2023/10/01 01:39:51;;;;;;;9.15;6.03;;;;;;;;;;2048038;28;20035;-90
2023/10/01 01:40:52;;;;;;;14.90;5.60;;;;;;;;;;2050775;28;20054;-90
2023/10/01 01:41:54;;;;;;;10.48;6.25;;;;;;;;;;2048079;28;20150;-90
2023/10/01 01:42:56;;;;;;;9.43;6.13;;;;;;;;;;2048149;28;20498;-90
2023/10/01 01:43:57;;;;;;;12.20;6.13;;;;;;;;;;2048030;28;20039;-90
2023/10/01 01:45:18;;;;;;;12.57;6.35;;;;;;;;;;2040121;29;20496;-90
2023/10/01 01:46:19;;;;;;;7.05;5.47;;;;;;;;;;2048291;28;20043;-91
2023/10/01 01:47:19;;;;;;;9.52;5.97;;;;;;;;;;2048032;28;20038;-93
2023/10/01 01:48:30;;;;;;;10.73;6.25;;;;;;;;;;2048282;28;20058;-90
2023/10/01 01:49:30;;;;;;;9.93;5.28;;;;;;;;;;2049653;28;20530;-90
2023/10/01 01:50:31;;;;;;;9.55;5.57;;;;;;;;;;2056693;28;20053;-89
2023/10/01 01:51:33;;;;;;;9.45;6.00;;;;;;;;;;2048046;29;20141;-90
2023/10/01 01:52:33;;;;;;;12.43;5.45;;;;;;;;;;2040159;29;20423;-90
2023/10/01 01:53:35;;;;;;;11.10;6.03;;;;;;;;;;2040198;29;20146;-89
2023/10/01 01:54:39;;;;;;;11.57;5.95;;;;;;;;;;2048107;28;20051;-89
2023/10/01 01:55:42;;;;;;;8.35;5.63;;;;;;;;;;2047897;28;20474;-90
2023/10/01 01:56:44;;;;;;;7.65;5.35;;;;;;;;;;2048077;28;20573;-90
2023/10/01 01:57:56;;;;;;;9.40;5.82;;;;;;;;;;2047980;29;20082;-90
2023/10/01 01:59:01;;;;;;;9.48;5.03;;;;;;;;;;2047922;28;20107;-90
2023/10/01 02:00:13;;;;;;;8.50;5.20;;;;;;;;;;2040829;29;20052;-89
2023/10/01 02:02:14;;;;;;;8.65;5.55;;;;;;;;;;2056607;28;20029;-90
2023/10/01 02:03:17;;;;;;;7.15;5.07;;;;;;;;;;2056668;28;20495;-88
2023/10/01 02:04:18;;;;;;;8.15;5.40;;;;;;;;;;2047911;29;20043;-90
2023/10/01 02:05:18;;;;;;;11.70;5.30;;;;;;;;;;2039732;29;20041;-90
2023/10/01 02:06:27;;;;;;;7.80;5.10;;;;;;;;;;2040194;29;20039;-88
2023/10/01 02:07:28;;;;;;;8.55;5.10;;;;;;;;;;2041279;29;20552;-90
2023/10/01 02:08:35;;;;;;;6.30;4.65;;;;;;;;;;2047893;29;20410;-88
2023/10/01 02:09:36;;;;;;;7.20;4.80;;;;;;;;;;2048703;28;20047;-89
2023/10/01 02:10:46;;;;;;;7.70;5.07;;;;;;;;;;2047949;28;20155;-91
2023/10/01 02:11:48;;;;;;;8.23;4.83;;;;;;;;;;2047952;28;20070;-89
2023/10/01 02:12:48;;;;;;;7.63;5.40;;;;;;;;;;2047912;28;20051;-90
2023/10/01 02:13:59;;;;;;;9.75;5.20;;;;;;;;;;2048317;28;20069;-91
2023/10/01 02:15:02;;;;;;;6.25;3.97;;;;;;;;;;2048105;28;20121;-91
2023/10/01 02:16:18;;;;;;;9.60;5.25;;;;;;;;;;2047533;28;20055;-91
2023/10/01 02:17:19;;;;;;;9.68;4.65;;;;;;;;;;2048562;28;20112;-90
2023/10/01 02:18:20;;;;;;;5.88;4.60;;;;;;;;;;2041186;29;20040;-91
2023/10/01 02:19:26;;;;;;;8.77;5.35;;;;;;;;;;2041032;29;20554;-90
2023/10/01 02:20:27;;;;;;;9.65;4.95;;;;;;;;;;2041002;29;20043;-91
2023/10/01 02:21:43;;;;;;;11.23;5.05;;;;;;;;;;2040427;29;20027;-91
2023/10/01 02:22:44;;;;;;;7.47;4.47;;;;;;;;;;2041755;29;20043;-90
2023/10/01 02:23:44;;;;;;;6.47;5.10;;;;;;;;;;2048077;28;20175;-90
2023/10/01 02:25:19;;;;;;;7.85;4.78;;;;;;;;;;2040069;29;20124;-91
2023/10/01 02:26:12;;;;;;;11.32;5.38;;;;;;;;;;2048583;28;20109;-91
2023/10/01 02:27:18;;;;;;;8.90;5.22;;;;;;;;;;2047818;28;20709;-91
2023/10/01 02:28:19;;;;;;;8.80;5.25;;;;;;;;;;2048668;28;20064;-91
2023/10/01 02:29:24;;;;;;;7.72;4.93;;;;;;;;;;2048065;28;20027;-92
2023/10/01 02:30:24;;;;;;;6.60;4.82;;;;;;;;;;2040786;29;20550;-91
2023/10/01 02:31:25;;;;;;;6.93;4.97;;;;;;;;;;2047984;28;20028;-92
2023/10/01 02:32:25;;;;;;;9.05;5.22;;;;;;;;;;2047921;28;20063;-90
2023/10/01 02:33:54;;;;;;;6.80;4.38;;;;;;;;;;2048037;28;20067;-90
2023/10/01 02:34:47;;;;;;;10.95;4.65;;;;;;;;;;2056631;28;20077;-90
2023/10/01 02:35:55;;;;;;;9.05;4.82;;;;;;;;;;2048178;28;20130;-90
2023/10/01 02:36:56;;;;;;;8.55;5.03;;;;;;;;;;2049701;28;20054;-90
2023/10/01 02:37:58;;;;;;;7.20;4.88;;;;;;;;;;2047991;28;20051;-90
2023/10/01 02:38:58;;;;;;;8.65;4.53;;;;;;;;;;2048330;28;20591;-90
2023/10/01 02:40:13;;;;;;;9.18;5.80;;;;;;;;;;2056968;28;20046;-91
2023/10/01 02:41:15;;;;;;;7.07;4.57;;;;;;;;;;2056890;28;20039;-91
2023/10/01 02:42:21;;;;;;;10.13;5.07;;;;;;;;;;2048021;28;20031;-90
2023/10/01 02:43:24;;;;;;;10.40;4.53;;;;;;;;;;2048699;28;20094;-92
2023/10/01 02:44:28;;;;;;;6.97;4.72;;;;;;;;;;2047894;28;20514;-90
2023/10/01 02:45:32;;;;;;;7.32;4.50;;;;;;;;;;2047876;28;20035;-93
2023/10/01 02:46:32;;;;;;;6.72;4.20;;;;;;;;;;2040058;29;20074;-90
2023/10/01 02:47:34;;;;;;;9.63;5.20;;;;;;;;;;2039940;29;20082;-89
2023/10/01 02:48:34;;;;;;;6.20;4.15;;;;;;;;;;2048065;28;20063;-91
2023/10/01 02:49:47;;;;;;;9.18;4.82;;;;;;;;;;2047682;28;20534;-89
2023/10/01 02:50:51;;;;;;;5.93;4.03;;;;;;;;;;2048566;28;20039;-89
2023/10/01 02:51:52;;;;;;;6.18;4.80;;;;;;;;;;2048462;28;20050;-89
2023/10/01 02:52:55;;;;;;;6.10;4.57;;;;;;;;;;2048180;28;20476;-90
2023/10/01 02:54:04;;;;;;;10.82;4.22;;;;;;;;;;1685943;29;10395712;-90
2023/10/01 02:55:17;;;;;;;8.10;4.30;;;;;;;;;;2040830;29;20066;-90
2023/10/01 02:56:18;;;;;;;6.43;4.38;;;;;;;;;;2041500;28;20123;-91
2023/10/01 02:57:24;;;;;;;8.25;4.95;;;;;;;;;;2039161;29;20604;-89
2023/10/01 02:58:28;;;;;;;7.57;4.78;;;;;;;;;;2048328;28;20530;-90
2023/10/01 02:59:28;;;;;;;6.05;4.47;;;;;;;;;;2056228;28;20074;-90
2023/10/01 03:00:32;;;;;;;7.28;4.85;;;;;;;;;;2047756;28;20039;-93
2023/10/01 03:01:34;;;;;;;6.22;4.07;;;;;;;;;;2048297;28;20105;-92
2023/10/01 03:02:38;;;;;;;8.48;5.30;;;;;;;;;;2056371;28;20031;-93
2023/10/01 03:03:39;;;;;;;8.63;4.93;;;;;;;;;;2047703;28;20491;-91
2023/10/01 03:04:40;;;;;;;9.90;4.68;;;;;;;;;;2047909;28;20043;-92
2023/10/01 03:05:44;;;;;;;8.63;4.38;;;;;;;;;;2040139;29;20043;-92
2023/10/01 03:06:57;;;;;;;6.60;4.10;;;;;;;;;;2047695;28;20054;-91
2023/10/01 03:08:03;;;;;;;10.88;4.95;;;;;;;;;;2041453;29;20071;-90
2023/10/01 03:09:04;;;;;;;8.52;4.50;;;;;;;;;;2048776;28;20340;-91
2023/10/01 03:10:12;;;;;;;7.93;4.80;;;;;;;;;;2047573;28;20090;-93
2023/10/01 03:11:16;;;;;;;9.75;4.50;;;;;;;;;;2041170;28;20535;-93
2023/10/01 03:12:34;;;;;;;7.55;4.45;;;;;;;;;;2039984;29;20416;-91
2023/10/01 03:13:36;;;;;;;9.38;5.18;;;;;;;;;;2042030;29;20503;-91
2023/10/01 03:14:37;;;;;;;6.30;4.43;;;;;;;;;;2040062;29;20118;-90
2023/10/01 03:15:41;;;;;;;8.27;4.55;;;;;;;;;;2048462;28;20534;-90
2023/10/01 03:16:52;;;;;;;5.90;5.03;;;;;;;;;;2048086;28;20487;-90
2023/10/01 03:17:57;;;;;;;10.88;4.05;;;;;;;;;;2049537;28;20067;-90
2023/10/01 03:19:12;;;;;;;10.55;5.03;;;;;;;;;;2056473;28;20097;-91
2023/10/01 03:20:58;;;;;;;9.13;4.28;;;;;;;;;;2047604;28;20506;-89
2023/10/01 03:22:14;;;;;;;6.00;4.10;;;;;;;;;;2050486;28;20043;-92
2023/10/01 03:22:53;;;;;;;10.10;4.13;;;;;;;;;;2056070;28;20672;-92
2023/10/01 03:23:54;;;;;;;6.63;4.28;;;;;;;;;;2047727;28;20048;-91
2023/10/01 03:24:58;;;;;;;5.07;3.97;;;;;;;;;;2039529;29;20071;-90
2023/10/01 03:26:07;;;;;;;6.55;4.63;;;;;;;;;;2040149;29;20456;-91
2023/10/01 03:27:20;;;;;;;6.05;4.65;;;;;;;;;;2040735;29;20503;-90
2023/10/01 03:28:26;;;;;;;6.75;4.45;;;;;;;;;;2041056;28;20094;-91
2023/10/01 03:29:34;;;;;;;9.60;4.50;;;;;;;;;;2048341;28;20128;-91
2023/10/01 03:30:39;;;;;;;7.70;3.78;;;;;;;;;;2048162;28;20043;-91
2023/10/01 03:31:43;;;;;;;7.93;4.43;;;;;;;;;;2049682;28;20426;-91
2023/10/01 03:32:46;;;;;;;9.38;4.35;;;;;;;;;;2057859;28;20050;-90
2023/10/01 03:33:47;;;;;;;8.15;4.50;;;;;;;;;;2058152;28;20489;-89
2023/10/01 03:34:52;;;;;;;8.65;4.35;;;;;;;;;;2049047;28;20043;-90
2023/10/01 03:35:53;;;;;;;7.05;4.40;;;;;;;;;;2049948;28;20294;-94
2023/10/01 03:36:53;;;;;;;8.30;4.72;;;;;;;;;;2049546;28;20569;-93
2023/10/01 03:38:14;;;;;;;5.18;4.15;;;;;;;;;;2040913;29;20044;-89
2023/10/01 03:39:27;;;;;;;11.35;4.50;;;;;;;;;;2051655;28;20113;-90
2023/10/01 03:40:27;;;;;;;7.22;4.63;;;;;;;;;;2049057;28;20416;-92
2023/10/01 03:41:52;;;;;;;5.57;4.57;;;;;;;;;;2049259;28;20131;-93
2023/10/01 03:42:52;;;;;;;9.77;3.97;;;;;;;;;;2057544;28;20569;-90
2023/10/01 03:44:08;;;;;;;5.72;4.38;;;;;;;;;;2057798;28;20045;-89
2023/10/01 03:45:26;;;;;;;9.52;4.82;;;;;;;;;;2049422;28;20047;-92
2023/10/01 03:46:26;;;;;;;8.40;4.43;;;;;;;;;;2051901;28;20096;-92
2023/10/01 03:47:29;;;;;;;6.43;4.10;;;;;;;;;;2057784;28;20510;-91
2023/10/01 03:48:42;;;;;;;8.60;4.93;;;;;;;;;;2058195;28;20115;-95
2023/10/01 03:49:45;;;;;;;6.30;4.82;;;;;;;;;;2049334;28;20031;-92
2023/10/01 03:50:47;;;;;;;9.57;4.80;;;;;;;;;;2050102;28;20043;-90
2023/10/01 03:51:58;;;;;;;9.70;4.18;;;;;;;;;;2058082;28;20125;-90
2023/10/01 03:52:59;;;;;;;6.78;4.20;;;;;;;;;;2058252;28;20073;-91
2023/10/01 03:54:03;;;;;;;8.05;4.63;;;;;;;;;;2048684;28;20489;-88
2023/10/01 03:55:25;;;;;;;6.10;4.60;;;;;;;;;;2041667;29;20051;-90
2023/10/01 03:56:30;;;;;;;5.00;3.78;;;;;;;;;;2051385;28;20051;-89
2023/10/01 03:57:30;;;;;;;8.65;4.43;;;;;;;;;;2049006;28;20760;-90
2023/10/01 03:58:36;;;;;;;6.90;4.43;;;;;;;;;;2048704;28;20082;-92
2023/10/01 03:59:37;;;;;;;9.05;4.78;;;;;;;;;;2057605;28;20047;-90
2023/10/01 04:01:58;;;;;;;7.38;5.40;;;;;;;;;;2057525;28;20035;-90
2023/10/01 04:03:00;;;;;;;8.33;3.87;;;;;;;;;;2057377;28;20113;-93
2023/10/01 04:04:01;;;;;;;6.88;4.32;;;;;;;;;;2049109;28;20053;-91
2023/10/01 04:05:06;;;;;;;6.25;4.60;;;;;;;;;;2048928;28;20341;-90
2023/10/01 04:06:06;;;;;;;8.32;4.45;;;;;;;;;;2041666;29;20056;-90
2023/10/01 04:07:10;;;;;;;9.32;4.15;;;;;;;;;;2040909;29;20083;-90
2023/10/01 04:08:12;;;;;;;8.88;5.40;;;;;;;;;;2041501;29;20475;-91
2023/10/01 04:09:18;;;;;;;11.98;4.93;;;;;;;;;;2048847;28;20110;-89
2023/10/01 04:10:28;;;;;;;5.05;3.88;;;;;;;;;;2048806;28;20107;-88
2023/10/01 04:11:49;;;;;;;6.88;4.55;;;;;;;;;;2041830;29;20031;-90
2023/10/01 04:12:54;;;;;;;5.72;4.07;;;;;;;;;;2043419;29;20127;-90
2023/10/01 04:14:07;;;;;;;5.68;4.15;;;;;;;;;;2040846;29;20051;-93
2023/10/01 04:15:09;;;;;;;6.57;4.65;;;;;;;;;;2042049;29;20107;-89
2023/10/01 04:16:14;;;;;;;7.00;4.50;;;;;;;;;;2048166;28;20475;-89
2023/10/01 04:17:19;;;;;;;10.98;4.13;;;;;;;;;;2048573;28;20043;-90
2023/10/01 04:18:21;;;;;;;7.07;4.30;;;;;;;;;;2040692;29;20038;-89
2023/10/01 04:19:24;;;;;;;6.45;4.30;;;;;;;;;;2048338;28;20122;-89
2023/10/01 04:20:28;;;;;;;6.97;4.85;;;;;;;;;;2056867;28;20623;-90
2023/10/01 04:21:28;;;;;;;8.07;4.80;;;;;;;;;;2057257;28;20023;-89
2023/10/01 04:22:29;;;;;;;7.60;4.95;;;;;;;;;;2048527;28;20035;-90
2023/10/01 04:23:32;;;;;;;9.18;4.50;;;;;;;;;;2049280;28;20023;-89
2023/10/01 04:24:32;;;;;;;10.05;4.35;;;;;;;;;;2048896;28;20411;-90
2023/10/01 04:25:39;;;;;;;7.85;5.00;;;;;;;;;;2048879;28;20078;-91
2023/10/01 04:26:40;;;;;;;6.20;4.22;;;;;;;;;;2048912;28;20074;-91
2023/10/01 04:27:45;;;;;;;6.28;4.75;;;;;;;;;;2048609;28;20535;-92
2023/10/01 04:28:50;;;;;;;10.40;4.80;;;;;;;;;;2048776;28;20150;-91
2023/10/01 04:29:58;;;;;;;7.10;4.30;;;;;;;;;;2041397;29;20427;-91
2023/10/01 04:30:58;;;;;;;7.18;4.43;;;;;;;;;;2049800;28;20640;-90
2023/10/01 04:32:01;;;;;;;6.25;4.18;;;;;;;;;;2057560;28;20077;-90
2023/10/01 04:33:17;;;;;;;8.65;4.00;;;;;;;;;;2048966;28;20058;-89
2023/10/01 04:34:19;;;;;;;7.43;4.63;;;;;;;;;;2048648;28;20055;-90
2023/10/01 04:35:19;;;;;;;7.65;4.50;;;;;;;;;;2040467;29;20071;-90
2023/10/01 04:36:20;;;;;;;9.10;4.72;;;;;;;;;;670900;29;10021911;-90
2023/10/01 04:37:36;;;;;;;6.80;3.90;;;;;;;;;;2056923;28;20023;-90
2023/10/01 04:38:39;;;;;;;8.43;4.30;;;;;;;;;;2048119;28;20142;-90
2023/10/01 04:39:40;;;;;;;9.48;4.65;;;;;;;;;;2048615;28;20533;-90
2023/10/01 04:40:41;;;;;;;6.63;4.50;;;;;;;;;;2048267;28;20051;-91
2023/10/01 04:41:42;;;;;;;6.85;4.72;;;;;;;;;;2047964;28;20138;-89
2023/10/01 04:42:43;;;;;;;5.55;4.40;;;;;;;;;;2048531;28;20578;-91
2023/10/01 04:43:59;;;;;;;9.35;4.72;;;;;;;;;;2048270;28;20423;-93
2023/10/01 04:45:00;;;;;;;7.70;4.18;;;;;;;;;;2047967;28;20039;-89
2023/10/01 04:46:03;;;;;;;9.45;4.65;;;;;;;;;;2040009;29;20070;-90
2023/10/01 04:47:30;;;;;;;7.72;4.20;;;;;;;;;;2040872;29;20113;-89
2023/10/01 04:48:24;;;;;;;7.07;3.90;;;;;;;;;;2051186;28;20047;-90
2023/10/01 04:49:27;;;;;;;7.10;4.35;;;;;;;;;;2057052;28;20509;-89
2023/10/01 04:50:29;;;;;;;6.45;4.22;;;;;;;;;;2048729;28;20041;-90
2023/10/01 04:51:44;;;;;;;5.10;4.50;;;;;;;;;;2040982;29;20039;-92
2023/10/01 04:52:44;;;;;;;7.53;4.55;;;;;;;;;;2042505;29;20056;-89
2023/10/01 04:53:46;;;;;;;6.60;4.65;;;;;;;;;;2048623;28;20069;-91
2023/10/01 04:54:49;;;;;;;8.90;5.25;;;;;;;;;;2048474;28;20102;-93
2023/10/01 04:56:06;;;;;;;6.28;4.53;;;;;;;;;;2040858;29;20075;-91
2023/10/01 04:57:06;;;;;;;5.60;4.47;;;;;;;;;;2050819;28;20043;-90
2023/10/01 04:58:12;;;;;;;7.03;4.50;;;;;;;;;;2048299;28;20551;-91
2023/10/01 04:59:14;;;;;;;8.93;5.43;;;;;;;;;;2040871;28;20052;-90
2023/10/01 05:00:15;;;;;;;8.30;4.75;;;;;;;;;;2048389;28;20034;-90
2023/10/01 05:01:17;;;;;;;8.10;5.07;;;;;;;;;;2057330;28;20034;-91
2023/10/01 05:02:21;;;;;;;8.82;4.80;;;;;;;;;;2057181;28;20471;-90
2023/10/01 05:03:38;;;;;;;8.23;5.03;;;;;;;;;;2048419;28;20098;-91
2023/10/01 05:04:41;;;;;;;7.25;4.40;;;;;;;;;;2050386;28;20043;-91
2023/10/01 05:05:42;;;;;;;6.20;4.43;;;;;;;;;;2048530;28;20065;-93
2023/10/01 05:06:43;;;;;;;7.60;4.88;;;;;;;;;;2040298;29;20118;-90
2023/10/01 05:07:45;;;;;;;9.20;5.20;;;;;;;;;;2040512;29;20216;-90
2023/10/01 05:08:49;;;;;;;10.20;4.40;;;;;;;;;;2040123;29;20047;-91
2023/10/01 05:09:50;;;;;;;9.23;4.55;;;;;;;;;;2048124;28;20039;-91
2023/10/01 05:10:51;;;;;;;5.75;4.28;;;;;;;;;;2040073;29;20221;-91
2023/10/01 05:11:53;;;;;;;8.65;5.00;;;;;;;;;;2040211;29;20048;-91
2023/10/01 05:13:02;;;;;;;9.95;4.78;;;;;;;;;;2040193;29;20230;-91
2023/10/01 05:14:04;;;;;;;5.20;3.63;;;;;;;;;;2041871;29;20455;-91
2023/10/01 05:15:17;;;;;;;9.57;5.00;;;;;;;;;;2040289;29;20448;-91
2023/10/01 05:16:26;;;;;;;7.20;4.50;;;;;;;;;;2041995;28;20544;-91
2023/10/01 05:17:30;;;;;;;8.30;4.10;;;;;;;;;;2050304;28;20419;-91
2023/10/01 05:18:31;;;;;;;7.30;4.53;;;;;;;;;;2048824;28;20506;-91
2023/10/01 05:19:32;;;;;;;8.88;4.40;;;;;;;;;;2039814;29;20050;-89
2023/10/01 05:20:34;;;;;;;7.47;5.43;;;;;;;;;;2032021;29;20591;-89
2023/10/01 05:21:36;;;;;;;7.60;4.03;;;;;;;;;;2032151;29;20042;-91
2023/10/01 05:22:46;;;;;;;6.20;4.30;;;;;;;;;;2032420;29;20048;-89
2023/10/01 05:23:47;;;;;;;8.00;4.47;;;;;;;;;;2042231;29;20147;-89
2023/10/01 05:24:49;;;;;;;6.60;5.10;;;;;;;;;;2039826;29;20055;-89
2023/10/01 05:25:50;;;;;;;6.25;4.40;;;;;;;;;;2032086;29;20062;-90
2023/10/01 05:26:51;;;;;;;7.60;4.47;;;;;;;;;;2032557;29;20052;-92
2023/10/01 05:27:55;;;;;;;7.53;4.43;;;;;;;;;;2032179;29;20599;-89
2023/10/01 05:28:57;;;;;;;8.95;4.90;;;;;;;;;;2032638;29;20140;-90
2023/10/01 05:29:57;;;;;;;7.70;4.60;;;;;;;;;;2040121;29;20453;-88
2023/10/01 05:30:59;;;;;;;6.32;4.68;;;;;;;;;;2048786;28;20130;-91
2023/10/01 05:32:01;;;;;;;9.25;4.88;;;;;;;;;;2040307;29;20107;-90
2023/10/01 05:33:05;;;;;;;8.65;4.97;;;;;;;;;;2039983;29;20052;-91
2023/10/01 05:34:06;;;;;;;7.28;4.88;;;;;;;;;;2032877;29;20051;-91
2023/10/01 05:35:15;;;;;;;6.72;5.05;;;;;;;;;;2040210;29;20515;-91
2023/10/01 05:36:16;;;;;;;21.95;13.85;;;;;;;;;;2048738;28;20058;-90
2023/10/01 05:37:36;;;;;;;21.38;14.65;;;;;;;;;;2040305;29;20105;-91
2023/10/01 05:38:37;;;;;;;12.70;5.28;;;;;;;;;;2034800;29;20095;-91
2023/10/01 05:39:55;;;;;;;8.50;5.93;;;;;;;;;;2040035;29;20092;-90
2023/10/01 05:40:55;;;;;;;10.07;5.63;;;;;;;;;;2034613;29;20075;-92
2023/10/01 05:41:57;;;;;;;15.35;8.57;;;;;;;;;;2039901;29;20111;-91
2023/10/01 05:43:12;;;;;;;9.77;7.07;;;;;;;;;;2039387;29;20051;-91
2023/10/01 05:44:12;;;;;;;10.32;5.30;;;;;;;;;;2041783;28;20420;-90
2023/10/01 05:45:18;;;;;;;8.15;5.20;;;;;;;;;;2048940;28;20046;-91
2023/10/01 05:46:22;;;;;;;6.97;4.55;;;;;;;;;;2050615;28;20043;-92
2023/10/01 05:47:23;;;;;;;7.20;5.07;;;;;;;;;;2050511;28;20031;-91
2023/10/01 05:48:23;;;;;;;11.23;5.88;;;;;;;;;;2040097;29;20043;-90
2023/10/01 05:49:23;;;;;;;9.60;5.28;;;;;;;;;;2034322;29;20080;-91
2023/10/01 05:50:29;;;;;;;7.97;5.13;;;;;;;;;;2033350;29;20451;-91
2023/10/01 05:51:43;;;;;;;8.48;5.50;;;;;;;;;;2032622;29;20434;-91
2023/10/01 05:52:47;;;;;;;7.65;5.10;;;;;;;;;;2041841;29;20074;-91
2023/10/01 05:53:52;;;;;;;9.07;5.30;;;;;;;;;;2039359;29;20108;-91
2023/10/01 05:54:52;;;;;;;9.82;4.95;;;;;;;;;;2040301;29;20423;-91
2023/10/01 05:55:54;;;;;;;9.07;5.80;;;;;;;;;;2040018;29;20055;-91
2023/10/01 05:56:55;;;;;;;8.00;4.95;;;;;;;;;;2032631;29;20059;-91
2023/10/01 05:58:12;;;;;;;8.27;5.18;;;;;;;;;;2032573;29;20048;-92
2023/10/01 05:59:14;;;;;;;10.60;4.43;;;;;;;;;;2040136;29;20036;-91
2023/10/01 06:00:18;;;;;;;9.27;5.55;;;;;;;;;;2040155;29;20320;-90
2023/10/01 06:01:21;;;;;;;8.65;5.53;;;;;;;;;;2051131;28;20347;-90
2023/10/01 06:02:41;;;;;;;8.30;5.05;;;;;;;;;;2048744;28;20069;-91
2023/10/01 06:03:48;;;;;;;5.90;4.50;;;;;;;;;;2049315;28;20050;-90
2023/10/01 06:04:51;;;;;;;9.63;6.25;;;;;;;;;;2050214;28;20039;-91
2023/10/01 06:06:08;;;;;;;10.05;6.85;;;;;;;;;;2051025;28;20051;-90
2023/10/01 06:07:09;;;;;;;7.28;4.68;;;;;;;;;;2042058;29;20441;-90
2023/10/01 06:08:15;;;;;;;8.52;5.78;;;;;;;;;;2042840;29;20048;-92
2023/10/01 06:09:15;;;;;;;7.88;5.43;;;;;;;;;;2034665;29;20090;-90
2023/10/01 06:10:19;;;;;;;6.93;5.50;;;;;;;;;;2033479;29;20036;-90
2023/10/01 06:11:38;;;;;;;6.78;4.93;;;;;;;;;;2039661;29;20038;-90
2023/10/01 06:12:50;;;;;;;9.65;5.03;;;;;;;;;;2034718;29;20075;-90
2023/10/01 06:13:56;;;;;;;5.80;4.93;;;;;;;;;;2041459;29;20530;-89
2023/10/01 06:15:08;;;;;;;6.95;4.53;;;;;;;;;;2049426;28;20489;-90
2023/10/01 06:16:11;;;;;;;10.05;6.03;;;;;;;;;;2055878;28;20094;-90
2023/10/01 06:17:12;;;;;;;5.47;4.13;;;;;;;;;;2056198;28;20065;-92
2023/10/01 06:18:12;;;;;;;7.70;5.70;;;;;;;;;;2056294;28;20409;-90
2023/10/01 06:19:14;;;;;;;7.07;5.28;;;;;;;;;;2056011;28;20506;-91
2023/10/01 06:20:23;;;;;;;10.86;5.01;;;;;;;;;;1704042;28;10258790;-90
2023/10/01 06:21:31;;;;;;;10.43;4.95;;;;;;;;;;2047846;29;20031;-91
2023/10/01 06:22:32;;;;;;;7.40;4.65;;;;;;;;;;2040451;29;20098;-90
2023/10/01 06:23:33;;;;;;;7.18;4.80;;;;;;;;;;2047667;28;20040;-90
2023/10/01 06:24:33;;;;;;;9.52;5.32;;;;;;;;;;2047667;28;20062;-91
2023/10/01 06:25:48;;;;;;;8.63;5.03;;;;;;;;;;2047419;28;20118;-90
2023/10/01 06:26:50;;;;;;;6.43;4.15;;;;;;;;;;2047526;28;20117;-90
2023/10/01 06:28:07;;;;;;;6.95;5.55;;;;;;;;;;2039839;29;20036;-90
2023/10/01 06:29:11;;;;;;;8.48;4.63;;;;;;;;;;2050068;28;20043;-90